Time;durP1;ratioP1;P1;durP2;ratioP2;P2;SDS_P1;SDS_P2;PMS_P1;PMS_P2;Temp;Humidity;BMP_temperature;BMP_pressure;BME280_temperature;BME280_humidity;BME280_pressure;Samples;Min_cycle;Max_cycle;Signal;HPM_P1;HPM_P2
2022/05/08 00:02:07;;;;;;;14.80;6.32;;;;;;;12.64;75.12;102862.44;5066412;28;20039;-59
2022/05/08 00:04:33;;;;;;;10.77;6.32;;;;;;;12.60;74.41;102857.19;5068497;28;20071;-58
2022/05/08 00:06:58;;;;;;;13.40;5.78;;;;;;;12.62;74.19;102864.19;5067511;28;20475;-59
2022/05/08 00:09:24;;;;;;;12.60;6.28;;;;;;;12.63;74.13;102865.97;5068053;28;20436;-59
2022/05/08 00:11:49;;;;;;;19.90;5.60;;;;;;;12.72;73.19;102864.13;5066910;28;20542;-60
2022/05/08 00:14:14;;;;;;;15.68;5.88;;;;;;;12.45;73.92;102853.81;5067732;28;20052;-61
2022/05/08 00:16:40;;;;;;;18.85;5.72;;;;;;;12.63;73.27;102865.09;5066529;28;20543;-59
2022/05/08 00:19:05;;;;;;;16.08;6.00;;;;;;;12.71;73.00;102859.72;5065766;28;20529;-59
2022/05/08 00:21:30;;;;;;;17.17;6.15;;;;;;;12.43;74.08;102862.66;5066998;28;20028;-59
2022/05/08 00:23:56;;;;;;;17.60;6.47;;;;;;;12.64;73.05;102856.25;5066854;28;20031;-58
2022/05/08 00:26:21;;;;;;;24.92;6.40;;;;;;;12.67;72.83;102865.94;5067864;28;20119;-59
2022/05/08 00:28:46;;;;;;;20.70;6.30;;;;;;;12.44;73.34;102860.00;5067631;28;20029;-59
2022/05/08 00:31:12;;;;;;;14.10;6.30;;;;;;;12.40;72.93;102857.38;5068246;28;20037;-58
2022/05/08 00:33:38;;;;;;;20.15;6.28;;;;;;;12.24;73.70;102854.88;5067022;28;20403;-59
2022/05/08 00:36:05;;;;;;;22.73;8.15;;;;;;;12.23;73.73;102858.41;5068105;28;20009;-58
2022/05/08 00:38:30;;;;;;;29.63;6.85;;;;;;;12.23;74.11;102856.66;5067972;28;20148;-59
2022/05/08 00:40:55;;;;;;;24.98;6.07;;;;;;;12.34;73.46;102859.19;5068840;28;20521;-61
2022/05/08 00:43:33;;;;;;;23.13;6.05;;;;;;;12.20;73.55;102871.66;5067854;28;20016;-58
2022/05/08 00:46:04;;;;;;;19.00;6.10;;;;;;;12.12;74.09;102864.66;5066550;28;20059;-58
2022/05/08 00:48:30;;;;;;;20.63;6.63;;;;;;;11.94;75.21;102862.13;5067286;28;20016;-60
2022/05/08 00:50:56;;;;;;;27.35;7.28;;;;;;;12.05;74.36;102867.31;5066831;28;20043;-58
2022/05/08 00:53:22;;;;;;;22.27;6.63;;;;;;;12.10;74.62;102866.44;5066757;28;20020;-59
2022/05/08 00:55:48;;;;;;;25.42;7.43;;;;;;;11.96;75.07;102866.53;5067230;28;20372;-59
2022/05/08 00:58:15;;;;;;;19.13;6.50;;;;;;;11.94;75.02;102864.75;5067523;28;20078;-59
2022/05/08 01:00:40;;;;;;;19.92;6.22;;;;;;;11.92;75.05;102870.03;5066646;28;20059;-59
2022/05/08 01:03:06;;;;;;;19.40;6.70;;;;;;;11.68;75.78;102858.75;5066648;28;20084;-58
2022/05/08 01:05:31;;;;;;;21.70;6.43;;;;;;;11.49;76.38;102865.91;5066678;28;20039;-57
2022/05/08 01:07:56;;;;;;;23.95;8.40;;;;;;;11.37;76.97;102870.38;5068333;28;20020;-59
2022/05/08 01:10:22;;;;;;;25.88;6.72;;;;;;;11.58;76.19;102864.97;5065111;28;20039;-59
2022/05/08 01:12:48;;;;;;;19.85;6.20;;;;;;;11.45;76.76;102869.47;5066490;28;20017;-58
2022/05/08 01:15:15;;;;;;;21.83;6.75;;;;;;;11.38;77.00;102866.84;5066729;28;20040;-59
2022/05/08 01:17:40;;;;;;;20.17;6.63;;;;;;;11.19;77.13;102866.03;5067009;28;20028;-59
2022/05/08 01:20:06;;;;;;;24.33;6.65;;;;;;;11.05;77.93;102870.50;5066516;28;20027;-60
2022/05/08 01:22:32;;;;;;;26.52;7.28;;;;;;;11.09;78.02;102867.84;5066272;28;20016;-57
2022/05/08 01:25:02;;;;;;;24.33;6.78;;;;;;;11.09;77.87;102854.66;5067967;28;20044;-58
2022/05/08 01:27:27;;;;;;;29.55;7.30;;;;;;;11.01;78.26;102861.72;5066702;28;20033;-59
2022/05/08 01:29:53;;;;;;;24.58;7.28;;;;;;;11.15;77.67;102868.69;5066226;28;20043;-59
2022/05/08 01:32:19;;;;;;;27.35;7.15;;;;;;;11.05;78.23;102863.44;5065470;28;20048;-59
2022/05/08 01:34:44;;;;;;;24.70;6.88;;;;;;;10.91;78.85;102859.97;5068058;28;20024;-60
2022/05/08 01:37:09;;;;;;;21.15;6.70;;;;;;;11.04;78.07;102856.44;5066941;28;20029;-60
2022/05/08 01:39:35;;;;;;;24.45;7.30;;;;;;;10.89;78.51;102862.63;5067861;28;20036;-57
2022/05/08 01:42:02;;;;;;;21.35;7.03;;;;;;;10.89;78.37;102864.41;5067093;28;20105;-59
2022/05/08 01:44:28;;;;;;;21.15;7.07;;;;;;;10.82;78.72;102871.44;5067574;28;20056;-59
2022/05/08 01:48:21;;;;;;;20.85;6.78;;;;;;;10.68;79.11;102871.44;5065413;28;20060;-60
2022/05/08 01:49:38;;;;;;;26.00;6.20;;;;;;;10.76;78.69;102866.16;5066334;28;20105;-59
2022/05/08 01:52:04;;;;;;;27.80;6.50;;;;;;;10.63;79.09;102870.59;5066488;28;20229;-60
2022/05/08 01:54:29;;;;;;;24.88;7.53;;;;;;;10.65;79.09;102874.97;5066483;28;20097;-59
2022/05/08 01:56:55;;;;;;;29.25;7.70;;;;;;;10.61;79.44;102876.75;5067066;28;20044;-58
2022/05/08 01:59:20;;;;;;;20.17;6.72;;;;;;;10.56;79.61;102875.88;5065647;28;20088;-61
2022/05/08 02:01:45;;;;;;;21.95;7.38;;;;;;;10.53;79.90;102867.09;5069171;28;20056;-58
2022/05/08 02:04:15;;;;;;;17.92;7.40;;;;;;;10.50;79.50;102867.97;5068632;28;20125;-59
2022/05/08 02:06:44;;;;;;;27.15;7.60;;;;;;;10.53;79.67;102875.88;5069750;28;20458;-57
2022/05/08 02:09:10;;;;;;;;;;;;;;;10.46;79.88;102872.38;5070021;28;20024;-58
2022/05/08 02:11:35;;;;;;;17.75;6.32;;;;;;;10.42;79.98;102877.63;5070220;28;19924;-59
2022/05/08 02:14:02;;;;;;;32.65;7.47;;;;;;;10.33;79.79;102876.72;5070908;28;20115;-57
2022/05/08 02:16:28;;;;;;;26.77;7.55;;;;;;;10.43;79.25;102869.72;5068345;28;20505;-58
2022/05/08 02:18:53;;;;;;;23.15;6.28;;;;;;;10.51;78.39;102871.50;5070774;28;20033;-60
2022/05/08 02:21:19;;;;;;;17.60;5.50;;;;;;;10.53;78.26;102873.22;5070028;28;20491;-60
2022/05/08 02:23:44;;;;;;;19.20;5.70;;;;;;;10.57;77.74;102876.75;5069930;28;20055;-59
2022/05/08 02:26:09;;;;;;;25.08;6.90;;;;;;;10.49;78.42;102874.13;5069329;28;20067;-59
2022/05/08 02:28:35;;;;;;;18.75;5.25;;;;;;;10.51;78.48;102879.41;5070446;28;20055;-58
2022/05/08 02:31:00;;;;;;;20.23;5.90;;;;;;;10.48;78.18;102873.22;5071039;28;20119;-59
2022/05/08 02:33:25;;;;;;;19.80;6.45;;;;;;;10.36;78.91;102876.72;5068671;28;20027;-58
2022/05/08 02:35:51;;;;;;;28.58;6.93;;;;;;;10.34;78.83;102889.03;5070692;28;20037;-58
2022/05/08 02:38:16;;;;;;;22.65;5.70;;;;;;;10.27;78.85;102889.91;5069235;28;20013;-58
2022/05/08 02:40:41;;;;;;;26.52;5.97;;;;;;;10.16;78.63;102894.28;5070397;28;20379;-60
2022/05/08 02:43:07;;;;;;;32.42;5.93;;;;;;;10.10;78.45;102897.78;5069431;28;20403;-59
2022/05/08 02:45:32;;;;;;;28.48;5.25;;;;;;;10.11;77.75;102889.91;5066949;28;20025;-60
2022/05/08 02:47:57;;;;;;;22.05;5.25;;;;;;;10.07;77.84;102893.41;5068043;28;20031;-60
2022/05/08 02:50:24;;;;;;;23.73;4.57;;;;;;;10.13;77.24;102897.81;5067532;28;20385;-61
2022/05/08 02:52:49;;;;;;;24.63;5.40;;;;;;;10.04;77.64;102897.78;5069799;28;20469;-59
2022/05/08 03:00:45;;;;;;;27.30;4.07;;;;;;;9.86;77.29;102899.50;5068557;28;20043;-57
2022/05/08 03:03:11;;;;;;;21.52;4.80;;;;;;;9.91;77.31;102902.16;5068964;28;20072;-59
2022/05/08 03:05:37;;;;;;;25.25;4.30;;;;;;;9.88;76.93;102913.56;5068669;28;20482;-60
2022/05/08 03:08:05;;;;;;;21.50;5.22;;;;;;;9.80;77.40;102905.66;5068106;28;20028;-59
2022/05/08 03:11:25;;;;;;;27.10;5.72;;;;;;;9.73;77.59;102911.78;5069088;28;20021;-60
2022/05/08 03:13:15;;;;;;;29.20;4.28;;;;;;;9.80;76.64;102904.75;5068502;28;20047;-58
2022/05/08 03:15:40;;;;;;;22.67;4.80;;;;;;;9.70;77.01;102909.13;5069063;28;20032;-57
2022/05/08 03:18:06;;;;;;;32.13;4.90;;;;;;;9.70;76.83;102909.97;5068607;28;20032;-58
2022/05/08 03:20:32;;;;;;;27.67;4.30;;;;;;;9.65;77.22;102910.84;5067860;28;20038;-58
2022/05/08 03:22:59;;;;;;;26.63;4.88;;;;;;;9.66;76.95;102912.63;5069711;28;20036;-59
2022/05/08 03:25:24;;;;;;;21.50;4.00;;;;;;;9.55;77.08;102908.22;5068418;28;20036;-58
2022/05/08 03:27:50;;;;;;;21.00;4.15;;;;;;;9.55;76.99;102908.22;5069568;28;20039;-59
2022/05/08 03:30:15;;;;;;;17.52;3.92;;;;;;;9.63;77.08;102908.22;5068038;28;20036;-58
2022/05/08 03:32:40;;;;;;;32.03;5.07;;;;;;;9.50;77.15;102909.94;5065917;28;20135;-57
2022/05/08 03:35:06;;;;;;;19.95;4.25;;;;;;;9.42;77.62;102909.91;5067723;28;20758;-61
2022/05/08 03:37:33;;;;;;;26.75;4.40;;;;;;;9.44;77.58;102908.16;5068897;28;20032;-58
2022/05/08 03:39:59;;;;;;;21.20;4.30;;;;;;;9.55;77.16;102912.59;5069664;28;20036;-59
2022/05/08 03:42:24;;;;;;;26.63;4.22;;;;;;;9.55;77.31;102918.75;5069110;28;20016;-60
2022/05/08 03:44:53;;;;;;;24.25;4.47;;;;;;;9.52;77.61;102916.09;5067124;28;20028;-59
2022/05/08 03:47:19;;;;;;;26.27;4.35;;;;;;;9.49;77.47;102921.34;5067614;28;20033;-57
2022/05/08 03:49:44;;;;;;;21.67;3.92;;;;;;;9.47;77.27;102920.44;5068788;28;20020;-59
2022/05/08 03:52:09;;;;;;;34.25;5.22;;;;;;;9.42;77.34;102924.81;5066619;28;20103;-59
2022/05/08 03:54:35;;;;;;;23.02;4.38;;;;;;;9.37;77.49;102921.28;5068289;28;20112;-60
2022/05/08 03:57:00;;;;;;;24.73;3.70;;;;;;;9.32;77.43;102923.88;5069340;28;20028;-60
2022/05/08 03:59:25;;;;;;;20.13;3.97;;;;;;;9.38;77.00;102923.03;5065735;28;20060;-58
2022/05/08 04:01:54;;;;;;;21.60;4.35;;;;;;;9.30;77.15;102925.66;5067044;28;20036;-60
2022/05/08 04:04:20;;;;;;;28.83;5.63;;;;;;;9.30;77.04;102920.38;5067505;28;20055;-60
2022/05/08 04:06:45;;;;;;;28.58;4.72;;;;;;;9.29;76.93;102932.66;5068408;28;20479;-60
2022/05/08 04:09:10;;;;;;;19.15;4.10;;;;;;;9.26;77.02;102930.00;5067909;28;20495;-58
2022/05/08 04:11:36;;;;;;;21.10;4.45;;;;;;;9.38;76.27;102928.28;5068458;28;20064;-58
2022/05/08 04:14:01;;;;;;;24.52;4.43;;;;;;;9.38;76.62;102931.81;5067426;28;20024;-59
2022/05/08 04:16:26;;;;;;;21.73;3.47;;;;;;;9.56;75.88;102930.13;5065893;28;20036;-60
2022/05/08 04:18:52;;;;;;;21.38;4.68;;;;;;;9.54;76.02;102935.38;5067456;28;20021;-62
2022/05/08 04:21:17;;;;;;;29.58;4.50;;;;;;;9.50;76.26;102930.09;5067119;28;20135;-59
2022/05/08 04:26:28;;;;;;;19.55;4.10;;;;;;;9.56;76.06;102938.91;5068789;28;20039;-59
2022/05/08 04:28:54;;;;;;;26.67;5.35;;;;;;;9.51;76.01;102935.38;5064694;28;20639;-59
2022/05/08 04:31:19;;;;;;;23.90;4.78;;;;;;;9.58;75.77;102942.41;5067139;28;20028;-58
2022/05/08 04:33:44;;;;;;;25.02;3.95;;;;;;;9.43;76.08;102947.63;5068665;28;20074;-64
2022/05/08 04:36:10;;;;;;;24.80;5.53;;;;;;;9.55;75.56;102949.44;5068140;28;20475;-58
2022/05/08 04:38:35;;;;;;;21.20;4.05;;;;;;;9.60;74.90;102951.19;5068931;28;20475;-59
2022/05/08 04:41:00;;;;;;;30.73;5.47;;;;;;;9.60;75.01;102953.84;5068849;28;20039;-59
2022/05/08 04:43:26;;;;;;;22.35;4.65;;;;;;;9.54;75.15;102951.16;5067935;28;20028;-59
2022/05/08 04:45:51;;;;;;;29.88;4.63;;;;;;;9.54;75.12;102948.53;5066739;28;20021;-60
2022/05/08 04:48:16;;;;;;;20.70;3.90;;;;;;;9.77;74.55;102958.28;5066919;28;20036;-60
2022/05/08 04:50:42;;;;;;;20.25;3.58;;;;;;;9.86;73.93;102946.91;5067595;28;20028;-59
2022/05/08 04:53:07;;;;;;;23.60;4.55;;;;;;;9.94;73.92;102957.47;5067433;28;20024;-60
2022/05/08 04:55:32;;;;;;;23.73;4.15;;;;;;;9.75;74.47;102954.75;5067108;28;20498;-58
2022/05/08 04:57:58;;;;;;;18.70;3.83;;;;;;;9.97;73.88;102968.03;5065859;28;20127;-57
2022/05/08 05:00:24;;;;;;;28.35;4.72;;;;;;;10.03;73.85;102957.50;5067581;28;20032;-58
2022/05/08 05:02:49;;;;;;;16.63;4.25;;;;;;;10.10;73.56;102969.81;5065600;28;20039;-59
2022/05/08 05:05:15;;;;;;;15.25;3.58;;;;;;;10.08;73.39;102966.28;5067336;28;20024;-58
2022/05/08 05:07:40;;;;;;;21.90;3.65;;;;;;;10.15;73.36;102972.47;5066171;28;20032;-59
2022/05/08 05:10:07;;;;;;;26.80;5.88;;;;;;;10.06;73.66;102977.69;5067473;28;20085;-58
2022/05/08 05:12:33;;;;;;;20.42;4.40;;;;;;;10.11;73.69;102971.56;5067151;28;20074;-58
2022/05/08 05:14:59;;;;;;;17.45;3.90;;;;;;;10.26;73.03;102972.47;5067670;28;20048;-59
2022/05/08 05:17:25;;;;;;;25.52;4.30;;;;;;;10.25;72.68;102981.25;5066582;28;20032;-58
2022/05/08 05:19:51;;;;;;;20.88;4.65;;;;;;;10.35;72.47;102974.22;5067078;28;20020;-56
2022/05/08 05:22:20;;;;;;;20.73;4.22;;;;;;;10.29;72.46;102988.28;5067119;28;20085;-58
2022/05/08 05:24:46;;;;;;;23.85;4.45;;;;;;;10.51;71.76;102984.84;5067474;28;20029;-58
2022/05/08 05:27:11;;;;;;;20.23;3.85;;;;;;;10.55;71.68;102984.84;5066645;28;20025;-60
2022/05/08 05:29:36;;;;;;;17.98;4.38;;;;;;;10.61;70.88;102982.22;5066078;28;20032;-59
2022/05/08 05:32:02;;;;;;;20.90;3.92;;;;;;;10.69;70.29;102987.47;5065559;28;20039;-62
2022/05/08 05:34:27;;;;;;;25.77;4.10;;;;;;;10.67;70.84;102983.97;5066980;28;20678;-58
2022/05/08 05:36:53;;;;;;;25.58;4.88;;;;;;;10.79;70.62;102987.47;5066731;28;20036;-58
2022/05/08 05:39:18;;;;;;;30.85;4.95;;;;;;;10.87;69.83;102988.38;5066978;28;20024;-59
2022/05/08 05:41:43;;;;;;;27.13;4.25;;;;;;;10.87;69.74;102976.03;5066684;28;20127;-60
2022/05/08 05:44:09;;;;;;;14.90;3.10;;;;;;;10.95;69.80;102981.31;5066887;28;20068;-59
2022/05/08 05:49:18;;;;;;;22.73;4.20;;;;;;;10.89;69.41;102986.59;5066461;28;20052;-58
2022/05/08 05:51:43;;;;;;;20.17;3.58;;;;;;;10.96;69.55;102993.59;5067184;28;20487;-59
2022/05/08 05:54:08;;;;;;;25.80;4.50;;;;;;;10.95;69.36;102993.59;5065966;28;20097;-59
2022/05/08 05:56:34;;;;;;;25.48;3.60;;;;;;;11.04;68.89;102992.72;5065158;28;20273;-59
2022/05/08 05:58:59;;;;;;;17.25;3.75;;;;;;;11.13;68.94;102998.00;5067183;28;20024;-57
2022/05/08 06:01:25;;;;;;;22.45;4.53;;;;;;;11.15;68.55;102998.88;5065874;28;20024;-58
2022/05/08 06:03:50;;;;;;;18.50;3.10;;;;;;;11.16;68.05;102998.00;5066460;28;20045;-59
2022/05/08 06:06:15;;;;;;;15.63;3.60;;;;;;;11.32;67.63;102998.81;5066755;28;20033;-60
2022/05/08 06:08:41;;;;;;;19.88;4.07;;;;;;;11.37;67.69;103001.47;5066967;28;20025;-59
2022/05/08 06:11:06;;;;;;;20.08;4.22;;;;;;;11.08;68.41;103007.69;5066671;28;20025;-60
2022/05/08 06:13:32;;;;;;;19.65;4.35;;;;;;;11.31;67.92;103006.75;5066435;28;20024;-60
2022/05/08 06:15:58;;;;;;;23.45;3.47;;;;;;;11.45;67.32;103007.63;5066444;28;20021;-59
2022/05/08 06:18:24;;;;;;;18.55;3.60;;;;;;;11.59;67.48;103011.97;5066445;28;20035;-59
2022/05/08 06:20:50;;;;;;;26.40;3.72;;;;;;;11.54;66.59;103009.34;5065371;28;20104;-58
2022/05/08 06:23:15;;;;;;;16.63;4.00;;;;;;;11.55;66.85;103008.44;5065394;28;20119;-59
2022/05/08 06:25:41;;;;;;;20.77;3.92;;;;;;;11.72;65.95;103018.09;5065877;28;20027;-60
2022/05/08 06:28:08;;;;;;;19.33;3.70;;;;;;;11.78;65.30;103011.91;5063030;28;20025;-59
2022/05/08 06:30:34;;;;;;;17.33;3.58;;;;;;;11.76;65.06;103003.97;5065135;28;20038;-59
2022/05/08 06:32:59;;;;;;;19.40;3.20;;;;;;;11.86;65.02;103020.69;5048302;28;20956;-57
2022/05/08 06:35:24;;;;;;;18.30;3.65;;;;;;;11.81;65.22;103017.16;5066086;28;20024;-58
2022/05/08 06:37:49;;;;;;;22.05;3.38;;;;;;;11.77;64.99;103021.56;5066859;28;20048;-56
2022/05/08 06:40:15;;;;;;;27.13;3.97;;;;;;;11.63;64.80;103024.28;5065042;28;20037;-58
2022/05/08 06:42:40;;;;;;;21.50;3.90;;;;;;;11.61;64.65;103026.94;5066337;28;20021;-59
2022/05/08 06:45:06;;;;;;;25.02;4.28;;;;;;;11.75;63.93;103029.50;5065345;28;20070;-57
2022/05/08 06:47:31;;;;;;;20.88;3.42;;;;;;;11.87;63.80;103033.84;5066899;28;20032;-60
2022/05/08 06:49:57;;;;;;;13.38;3.15;;;;;;;11.98;63.07;103035.59;5069316;28;20020;-57
2022/05/08 06:52:22;;;;;;;17.58;3.70;;;;;;;11.83;63.64;103032.13;5067900;28;20033;-57
2022/05/08 06:54:48;;;;;;;21.00;3.15;;;;;;;11.58;64.68;103036.59;5069439;28;20032;-58
2022/05/08 06:57:13;;;;;;;21.60;3.65;;;;;;;11.92;63.38;103038.25;5068541;28;20522;-57
2022/05/08 07:02:23;;;;;;;14.55;2.53;;;;;;;12.28;63.05;103041.63;5068162;28;20098;-58
2022/05/08 07:04:48;;;;;;;16.27;3.22;;;;;;;12.24;62.61;103037.25;5068441;28;20076;-58
2022/05/08 07:07:14;;;;;;;15.57;2.88;;;;;;;12.35;62.45;103040.72;5069014;28;20367;-59
2022/05/08 07:09:39;;;;;;;19.95;3.58;;;;;;;12.25;62.96;103042.53;5069387;28;20020;-59
2022/05/08 07:12:05;;;;;;;21.38;3.20;;;;;;;12.49;62.43;103047.66;5067922;28;20024;-59
2022/05/08 07:14:30;;;;;;;25.85;3.30;;;;;;;12.54;62.31;103040.59;5069553;28;20074;-58
2022/05/08 07:16:55;;;;;;;15.23;3.75;;;;;;;12.38;62.15;103047.75;5068104;28;20474;-59
2022/05/08 07:19:21;;;;;;;17.42;3.05;;;;;;;12.39;61.86;103038.91;5068476;28;20054;-58
2022/05/08 07:21:46;;;;;;;16.63;3.63;;;;;;;12.43;61.97;103045.09;5068961;28;20459;-57
2022/05/08 07:24:11;;;;;;;21.30;3.40;;;;;;;12.49;62.50;103042.38;5068263;28;20459;-58
2022/05/08 07:26:37;;;;;;;17.77;3.42;;;;;;;12.42;62.33;103048.59;5068690;28;20036;-59
2022/05/08 07:29:04;;;;;;;18.63;2.97;;;;;;;12.42;62.15;103045.94;5065863;28;20378;-58
2022/05/08 07:31:30;;;;;;;23.63;2.90;;;;;;;12.67;61.11;103053.75;5067725;28;20046;-57
2022/05/08 07:36:39;;;;;;;17.85;2.90;;;;;;;12.68;60.71;103050.19;5067260;28;20031;-58
2022/05/08 07:39:04;;;;;;;16.98;3.55;;;;;;;12.51;60.99;103051.19;5069032;28;20399;-58
2022/05/08 07:41:30;;;;;;;17.20;3.42;;;;;;;12.53;61.82;103052.06;5069431;28;20020;-59
2022/05/08 07:43:55;;;;;;;16.27;3.85;;;;;;;12.56;61.85;103059.97;5060808;28;20696;-60
2022/05/08 07:46:21;;;;;;;19.15;3.35;;;;;;;12.89;60.47;103057.09;5057795;28;20033;-59
2022/05/08 07:48:46;;;;;;;13.52;3.15;;;;;;;12.92;59.55;103057.06;5062371;28;20402;-59
2022/05/08 07:51:12;;;;;;;16.95;3.17;;;;;;;12.85;60.58;103072.09;5058926;28;20029;-60
2022/05/08 07:53:37;;;;;;;16.17;3.10;;;;;;;13.07;58.87;103056.06;5057471;28;20025;-59
2022/05/08 07:56:02;;;;;;;13.63;2.50;;;;;;;12.82;59.73;103069.47;5057631;28;20013;-58
2022/05/08 07:58:29;;;;;;;14.40;3.60;;;;;;;13.12;58.91;103061.28;5057167;28;20043;-59
2022/05/08 08:00:56;;;;;;;15.35;3.00;;;;;;;13.25;58.86;103062.94;5058448;28;20491;-58
2022/05/08 08:03:23;;;;;;;14.68;3.40;;;;;;;13.32;57.83;103065.53;5058919;28;20056;-58
2022/05/08 08:05:48;;;;;;;19.65;2.97;;;;;;;13.19;58.49;103070.06;5062371;28;20028;-58
2022/05/08 08:08:15;;;;;;;16.80;3.22;;;;;;;13.17;58.89;103067.44;5052892;28;20020;-58
2022/05/08 08:10:40;;;;;;;14.68;3.25;;;;;;;13.18;58.93;103073.63;5043946;28;20029;-59
2022/05/08 08:13:07;;;;;;;22.60;3.33;;;;;;;13.29;59.28;103065.56;5041968;28;20131;-59
2022/05/08 08:15:32;;;;;;;19.92;3.05;;;;;;;13.47;58.75;103061.84;5046904;28;20104;-57
2022/05/08 08:17:58;;;;;;;16.00;2.90;;;;;;;13.08;58.75;103068.41;5048546;28;20032;-65
2022/05/08 08:20:23;;;;;;;16.60;3.33;;;;;;;13.19;58.21;103064.78;5048042;28;20081;-58
2022/05/08 08:22:48;;;;;;;14.50;3.03;;;;;;;13.58;57.13;103056.47;5046306;28;20507;-57
2022/05/08 08:25:14;;;;;;;14.23;2.85;;;;;;;13.77;57.38;103065.97;5046488;28;20764;-59
2022/05/08 08:27:39;;;;;;;14.93;3.30;;;;;;;13.59;56.71;103059.13;5047516;28;20098;-59
2022/05/08 08:30:05;;;;;;;17.40;3.47;;;;;;;13.66;57.21;103065.19;5046993;28;20032;-57
2022/05/08 08:32:31;;;;;;;12.70;2.83;;;;;;;13.70;57.11;103066.06;5047161;28;20164;-59
2022/05/08 08:34:57;;;;;;;11.30;2.72;;;;;;;13.90;56.45;103064.03;5046304;28;20020;-58
2022/05/08 08:37:22;;;;;;;19.30;2.80;;;;;;;13.87;57.26;103064.09;5047598;28;20506;-56
2022/05/08 08:39:48;;;;;;;20.73;3.30;;;;;;;13.74;56.59;103062.47;5045418;28;20032;-58
2022/05/08 08:42:31;;;;;;;16.65;3.05;;;;;;;13.78;56.53;103058.88;5046485;28;20066;-58
2022/05/08 08:47:53;;;;;;;15.57;3.22;;;;;;;13.75;58.00;103065.09;5028205;28;20130;-57
2022/05/08 08:50:22;;;;;;;12.38;2.55;;;;;;;14.03;56.62;103059.47;5058342;28;20028;-57
2022/05/08 08:52:48;;;;;;;13.95;2.75;;;;;;;14.00;56.44;103062.16;5061131;28;20031;-63
2022/05/08 08:55:15;;;;;;;12.10;2.67;;;;;;;13.62;57.71;103059.09;5065206;28;20012;-66
2022/05/08 08:57:41;;;;;;;12.63;3.03;;;;;;;13.75;57.04;103058.91;5065627;28;20420;-65
2022/05/08 09:00:07;;;;;;;10.05;2.63;;;;;;;14.21;57.45;103056.59;5064222;28;20021;-67
2022/05/08 09:02:34;;;;;;;12.98;3.35;;;;;;;14.62;55.03;103062.19;5066682;28;20415;-68
2022/05/08 09:05:04;;;;;;;14.10;3.15;;;;;;;14.40;55.73;103051.91;5066447;28;20072;-67
2022/05/08 09:07:49;;;;;;;12.98;2.58;;;;;;;14.56;55.60;103057.84;5066237;28;20112;-67
2022/05/08 09:10:19;;;;;;;12.85;2.95;;;;;;;14.72;54.94;103057.63;5064518;28;20035;-66
2022/05/08 09:13:05;;;;;;;8.40;2.47;;;;;;;14.26;54.60;103052.97;5061502;28;20033;-66
2022/05/08 09:15:35;;;;;;;14.13;2.70;;;;;;;14.23;55.32;103058.31;5058240;28;20031;-68
2022/05/08 09:18:02;;;;;;;11.45;2.83;;;;;;;14.38;54.36;103059.00;5067814;28;20111;-67
2022/05/08 09:20:29;;;;;;;9.48;2.28;;;;;;;14.79;53.31;103061.97;5066150;28;20079;-66
2022/05/08 09:23:21;;;;;;;16.25;2.72;;;;;;;14.47;54.13;103060.63;5065429;28;20021;-66
2022/05/08 09:25:48;;;;;;;16.70;2.70;;;;;;;14.34;53.94;103059.94;5062677;28;20548;-65
2022/05/08 09:28:16;;;;;;;13.45;2.30;;;;;;;14.74;53.76;103061.09;5065864;28;20079;-63
2022/05/08 09:30:54;;;;;;;9.65;2.25;;;;;;;14.84;54.00;103062.75;5066502;28;20020;-66
2022/05/08 09:33:27;;;;;;;8.93;2.25;;;;;;;14.44;53.91;103052.72;5061904;28;20025;-64
2022/05/08 09:35:53;;;;;;;12.70;2.67;;;;;;;14.83;53.69;103053.03;5055494;28;20048;-65
2022/05/08 09:38:18;;;;;;;16.60;2.28;;;;;;;14.69;52.64;103047.06;5053599;28;20092;-65
2022/05/08 09:40:45;;;;;;;13.80;2.28;;;;;;;14.87;53.04;103052.06;5057101;28;20013;-65
2022/05/08 09:43:28;;;;;;;18.02;2.63;;;;;;;14.89;52.24;103049.41;5056353;28;20456;-65
2022/05/08 09:45:58;;;;;;;8.75;2.25;;;;;;;15.07;52.62;103048.22;5056019;28;20024;-64
2022/05/08 09:48:27;;;;;;;15.95;2.60;;;;;;;15.12;52.15;103051.69;5054602;28;20029;-65
2022/05/08 09:50:58;;;;;;;14.32;2.67;;;;;;;14.59;52.54;103057.81;5046581;28;20037;-64
2022/05/08 09:53:24;;;;;;;11.75;3.05;;;;;;;14.99;51.90;103053.66;5046927;28;20079;-64
2022/05/08 09:55:51;;;;;;;12.13;2.70;;;;;;;14.88;52.15;103053.84;5050664;28;20058;-65
2022/05/08 09:58:16;;;;;;;7.65;2.40;;;;;;;14.91;51.86;103052.91;5066406;28;20090;-65
2022/05/08 10:00:42;;;;;;;6.68;2.03;;;;;;;15.15;51.09;103054.25;5063580;28;20495;-63
2022/05/08 10:03:07;;;;;;;12.40;2.20;;;;;;;15.03;50.92;103054.47;5065146;28;20041;-63
2022/05/08 10:05:34;;;;;;;11.45;2.00;;;;;;;14.87;50.42;103057.38;5066791;28;20123;-63
2022/05/08 10:08:01;;;;;;;17.27;2.65;;;;;;;15.06;50.21;103059.75;5066483;28;20440;-63
2022/05/08 10:15:54;;;;;;;8.90;2.22;;;;;;;15.35;51.61;103052.16;5053492;28;20036;-65
2022/05/08 10:18:23;;;;;;;9.50;2.10;;;;;;;15.43;52.79;103050.22;5056483;28;20021;-65
2022/05/08 10:21:02;;;;;;;10.02;2.22;;;;;;;15.78;51.21;103039.78;5066819;28;20505;-66
2022/05/08 10:23:42;;;;;;;9.10;1.90;;;;;;;15.87;51.62;103039.59;5060856;28;20025;-65
2022/05/08 10:26:16;;;;;;;;;;;;;;;15.76;48.92;103036.28;5054558;28;20052;-64
2022/05/08 10:29:03;;;;;;;9.27;1.90;;;;;;;15.92;49.84;103036.81;5064093;28;19924;-64
2022/05/08 10:31:48;;;;;;;12.40;2.10;;;;;;;15.38;50.19;103033.50;5069407;28;20094;-64
2022/05/08 10:34:15;;;;;;;7.40;1.60;;;;;;;15.73;49.81;103036.34;5068480;28;20024;-64
2022/05/08 10:37:21;;;;;;;8.43;1.85;;;;;;;16.19;49.98;103026.53;5068144;28;20534;-63
2022/05/08 10:39:47;;;;;;;5.40;1.60;;;;;;;15.98;48.26;103030.56;5061638;28;20494;-63
2022/05/08 10:42:21;;;;;;;7.90;2.08;;;;;;;16.26;47.87;103030.78;5068963;28;20028;-62
2022/05/08 10:44:47;;;;;;;9.43;2.17;;;;;;;16.01;48.57;103025.16;5069313;28;20028;-62
2022/05/08 10:47:48;;;;;;;13.75;2.05;;;;;;;15.69;50.15;103024.91;5069059;28;20032;-62
2022/05/08 10:50:13;;;;;;;7.50;1.80;;;;;;;16.45;47.99;103029.50;5027155;28;20045;-64
2022/05/08 10:52:44;;;;;;;12.00;2.78;;;;;;;16.11;48.92;103031.16;5055503;28;20040;-63
2022/05/08 10:55:17;;;;;;;7.82;2.28;;;;;;;16.17;48.49;103026.56;5068284;28;20032;-63
2022/05/08 10:57:45;;;;;;;3.67;1.58;;;;;;;15.87;48.69;103028.94;5068995;28;20031;-63
2022/05/08 11:00:30;;;;;;;11.27;2.40;;;;;;;16.16;48.58;103034.56;5068092;28;20430;-62
2022/05/08 11:02:56;;;;;;;11.98;2.35;;;;;;;15.62;49.81;103040.09;5068935;28;20045;-63
2022/05/08 11:05:31;;;;;;;5.88;2.03;;;;;;;15.99;49.18;103026.97;5067102;28;20043;-62
2022/05/08 11:07:58;;;;;;;15.35;2.40;;;;;;;16.08;48.05;103032.09;5062516;28;20036;-62
2022/05/08 11:10:31;;;;;;;10.05;2.25;;;;;;;16.25;47.77;103034.38;5068199;28;20432;-62
2022/05/08 11:13:01;;;;;;;8.52;2.30;;;;;;;16.17;47.77;103031.03;5067474;28;20107;-63
2022/05/08 11:15:31;;;;;;;13.30;2.70;;;;;;;16.34;46.93;103027.09;5068901;28;20017;-61
2022/05/08 11:18:19;;;;;;;7.38;2.60;;;;;;;16.87;46.34;103032.00;5068553;28;20028;-61
2022/05/08 11:20:53;;;;;;;5.93;2.20;;;;;;;16.75;45.49;103032.31;5069042;28;20020;-61
2022/05/08 11:23:22;;;;;;;6.30;2.28;;;;;;;16.41;46.48;103034.03;5067640;28;20040;-61
2022/05/08 11:25:50;;;;;;;10.02;1.90;;;;;;;16.52;44.83;103031.97;5065394;28;20021;-61
2022/05/08 11:28:17;;;;;;;4.93;1.55;;;;;;;16.06;47.54;103027.72;5063899;28;20020;-61
2022/05/08 11:30:46;;;;;;;4.38;2.10;;;;;;;16.34;45.49;103021.78;5068478;28;20085;-62
2022/05/08 11:36:04;;;;;;;9.48;2.25;;;;;;;16.90;45.27;103025.72;5069395;28;20097;-61
2022/05/08 11:38:50;;;;;;;4.93;1.85;;;;;;;16.72;45.69;103027.06;5068881;28;20055;-62
2022/05/08 11:41:21;;;;;;;11.77;2.55;;;;;;;16.64;46.36;103012.16;5067388;28;20390;-62
2022/05/08 11:43:51;;;;;;;7.30;1.70;;;;;;;17.63;43.64;103012.22;5064289;28;20348;-62
2022/05/08 11:46:18;;;;;;;7.45;2.13;;;;;;;17.47;45.20;103017.13;5054305;28;20129;-62
2022/05/08 11:48:47;;;;;;;8.07;1.60;;;;;;;17.03;43.43;103004.97;5053193;28;20028;-60